EDT,Max TemperatureF,Mean TemperatureF,Min TemperatureF,Max Dew PointF,MeanDew PointF,Min DewpointF,Max Humidity, Mean Humidity, Min Humidity, Max Sea Level PressureIn, Mean Sea Level PressureIn, Min Sea Level PressureIn, Max VisibilityMiles, Mean VisibilityMiles, Min VisibilityMiles, Max Wind SpeedMPH, Mean Wind SpeedMPH, Max Gust SpeedMPH,PrecipitationIn, CloudCover, Events, WindDirDegrees
2013-8-1,82,70,57,64,61,55,90,78,50,29.96,29.85,29.79,10,9,4,13,2,18,0.00,4,Rain,283
2013-8-2,80,66,53,61,56,51,100,80,43,29.93,29.89,29.86,10,7,2,15,3,16,0.01,2,,241
2013-8-3,79,67,55,61,54,47,87,61,36,29.94,29.89,29.85,10,10,10,13,6,21,0.00,1,,288
2013-8-4,75,64,53,55,52,48,93,71,41,30.06,29.98,29.93,10,10,10,13,6,23,0.03,3,,290
2013-8-5,75,60,48,55,49,46,96,71,39,30.13,30.08,30.04,10,10,4,7,3,,0.00,1,,240
2013-8-6,77,62,48,60,53,46,100,78,46,30.09,30.06,30.03,10,8,1,8,1,,0.00,3,,172
2013-8-7,73,66,59,65,61,55,88,78,71,30.08,30.02,29.96,10,10,10,12,3,,0.00,7,,183
2013-8-8,84,72,61,70,65,59,94,79,58,30.04,29.97,29.91,10,10,6,14,4,,0.18,5,Rain-Thunderstorm,226
2013-8-9,82,69,57,70,66,57,100,86,60,29.97,29.88,29.82,10,8,0,17,2,24,1.01,5,Fog-Rain,316
2013-8-10,78,66,55,59,55,50,100,77,39,30.11,30.02,29.96,10,7,0,13,3,24,0.01,0,Fog,286
2013-8-11,78,63,48,56,52,48,100,82,42,30.15,30.11,30.05,10,6,0,9,1,,0.00,4,Fog,323
2013-8-12,80,66,53,63,57,51,93,73,46,30.07,30.00,29.91,10,10,9,9,2,,0.00,2,Rain,254
2013-8-13,78,69,59,63,59,46,94,79,52,29.88,29.79,29.73,10,8,2,18,3,26,0.30,6,Rain-Thunderstorm,273
2013-8-14,70,60,46,52,47,41,90,66,43,30.11,29.96,29.86,10,10,9,15,9,24,0.00,4,,280
2013-8-15,73,58,43,55,48,42,97,76,42,30.19,30.14,30.08,10,8,0,9,4,,0.00,3,Fog,248
2013-8-16,75,62,48,54,50,46,100,82,36,30.23,30.18,30.15,10,6,0,8,2,,0.00,3,Fog,262
2013-8-17,78,60,46,57,50,45,100,86,38,30.34,30.28,30.25,10,4,0,6,0,,0.00,2,Fog,212
2013-8-18,75,64,54,62,57,52,93,79,51,30.29,30.22,30.14,10,9,6,5,0,,0.00,0,,205
2013-8-19,80,68,55,64,59,54,97,80,47,30.15,30.10,30.04,10,8,2,6,1,,0.00,1,,229
2013-8-20,84,68,55,64,57,54,100,84,39,30.17,30.12,30.08,10,4,0,7,1,,0.01,2,Fog,236
2013-8-21,87,68,53,66,56,52,100,85,37,30.22,30.16,30.06,10,4,0,8,1,,0.01,2,Fog,252
2013-8-22,88,71,55,67,61,54,100,83,43,30.06,29.99,29.88,10,5,0,28,3,43,0.06,2,Fog-Rain-Thunderstorm,252
2013-8-23,79,66,55,64,59,50,100,85,48,30.20,30.05,29.98,10,4,0,16,3,23,0.01,4,Fog,297
2013-8-24,78,60,44,55,50,44,100,85,34,30.36,30.29,30.22,10,4,0,8,2,,0.00,2,Fog,272
2013-8-25,82,64,45,59,50,45,100,83,34,30.41,30.33,30.18,10,5,0,8,1,18,0.00,2,Fog,233
2013-8-26,81,72,63,70,64,58,93,79,58,30.19,30.04,29.93,10,8,2,28,4,41,0.54,6,Rain-Thunderstorm,241
2013-8-27,84,74,66,70,66,64,93,79,56,29.96,29.92,29.87,10,8,3,10,4,,0.00,5,,247
2013-8-28,86,75,66,70,67,64,94,83,56,29.94,29.88,29.82,10,9,5,9,3,,0.09,6,Rain,252
2013-8-29,84,75,64,69,65,62,100,85,49,30.05,30.00,29.93,10,6,0,12,1,,0.00,5,Fog,348
2013-8-30,89,74,60,68,64,59,100,85,39,30.04,29.97,29.80,10,5,0,8,3,,0.01,5,Fog,243
2013-8-31,89,77,66,70,67,64,94,75,51,29.86,29.79,29.72,10,8,0,10,4,,1.07,4,Fog-Rain-Thunderstorm,300